Time;durP1;ratioP1;P1;durP2;ratioP2;P2;SDS_P1;SDS_P2;PMS_P1;PMS_P2;Temp;Humidity;BMP_temperature;BMP_pressure;BME280_temperature;BME280_humidity;BME280_pressure;Samples;Min_cycle;Max_cycle;Signal;HPM_P1;HPM_P2
2022/10/28 00:01:30;;;;;;;3.30;1.20;;;9.50;99.90;;;;;;5072326;28;20547;-50
2022/10/28 00:04:00;;;;;;;2.93;1.33;;;9.50;99.90;;;;;;5071838;28;20535;-47
2022/10/28 00:06:28;;;;;;;3.17;1.20;;;9.80;99.90;;;;;;5072491;28;20544;-48
2022/10/28 00:08:56;;;;;;;1.90;1.40;;;10.10;99.90;;;;;;5072532;28;20490;-48
2022/10/28 00:11:26;;;;;;;4.43;2.03;;;10.20;99.90;;;;;;5071953;28;20580;-48
2022/10/28 00:13:53;;;;;;;2.80;2.27;;;10.20;99.90;;;;;;5072071;28;20536;-50
2022/10/28 00:16:24;;;;;;;2.70;2.47;;;10.20;99.90;;;;;;5072084;28;20445;-46
2022/10/28 00:18:52;;;;;;;3.43;2.33;;;10.10;99.90;;;;;;5071829;28;20441;-47
2022/10/28 00:21:23;;;;;;;4.80;1.63;;;10.10;99.90;;;;;;5072107;28;20467;-49
2022/10/28 00:23:49;;;;;;;1.90;1.13;;;10.10;99.90;;;;;;5071177;28;21088;-50
2022/10/28 00:26:18;;;;;;;1.77;1.40;;;10.20;99.90;;;;;;5071878;28;20441;-47
2022/10/28 00:28:47;;;;;;;2.07;1.20;;;10.20;99.90;;;;;;5071753;28;20863;-47
2022/10/28 00:31:16;;;;;;;4.77;1.20;;;10.30;99.90;;;;;;5071480;28;20934;-48
2022/10/28 00:33:45;;;;;;;2.43;1.30;;;10.30;99.90;;;;;;5071359;28;20451;-47
2022/10/28 00:36:14;;;;;;;3.40;1.60;;;10.10;99.90;;;;;;5071584;28;20537;-47
2022/10/28 00:38:42;;;;;;;2.60;1.40;;;9.80;99.90;;;;;;5071953;28;20569;-47
2022/10/28 00:41:09;;;;;;;2.43;1.13;;;9.80;99.90;;;;;;5071454;28;20531;-47
2022/10/28 00:43:39;;;;;;;2.83;1.13;;;9.70;99.90;;;;;;5071306;28;20436;-47
2022/10/28 00:46:13;;;;;;;2.03;0.93;;;9.70;99.90;;;;;;5071325;28;20883;-47
2022/10/28 00:48:45;;;;;;;2.27;1.10;;;9.80;99.90;;;;;;5071591;28;20523;-47
2022/10/28 00:51:12;;;;;;;3.90;1.70;;;9.90;99.90;;;;;;5070102;28;20492;-47
2022/10/28 00:53:41;;;;;;;2.70;1.33;;;9.90;99.90;;;;;;5071232;28;20830;-47
2022/10/28 00:56:10;;;;;;;1.83;1.33;;;9.90;99.90;;;;;;5071447;28;20444;-48
2022/10/28 00:58:37;;;;;;;3.63;1.30;;;10.00;99.90;;;;;;5071297;28;20535;-47
2022/10/28 01:01:04;;;;;;;3.23;1.13;;;10.00;99.90;;;;;;5071389;28;20461;-47
2022/10/28 01:03:31;;;;;;;2.37;1.70;;;9.60;99.90;;;;;;5071034;28;20816;-48
2022/10/28 01:06:01;;;;;;;1.70;1.27;;;9.50;99.90;;;;;;5070955;28;20449;-47
2022/10/28 01:08:27;;;;;;;4.93;1.30;;;9.40;99.90;;;;;;5071268;28;20874;-47
2022/10/28 01:11:13;;;;;;;3.17;1.10;;;9.50;99.90;;;;;;5070931;28;20872;-47
2022/10/28 01:13:50;;;;;;;3.00;1.00;;;9.60;99.90;;;;;;5070915;28;20447;-47
2022/10/28 01:16:26;;;;;;;3.20;1.40;;;9.90;99.90;;;;;;5071312;28;20527;-50
2022/10/28 01:19:04;;;;;;;2.33;1.13;;;10.00;99.90;;;;;;5071148;28;20444;-47
2022/10/28 01:22:06;;;;;;;2.80;1.43;;;10.10;99.90;;;;;;5071138;28;20457;-48
2022/10/28 01:24:54;;;;;;;1.77;1.17;;;10.30;99.90;;;;;;5056423;28;20528;-49
2022/10/28 01:28:09;;;;;;;3.87;2.00;;;10.40;99.90;;;;;;5071132;28;20437;-47
2022/10/28 01:30:54;;;;;;;2.27;1.57;;;10.10;99.90;;;;;;5023255;28;20552;-47
2022/10/28 01:33:26;;;;;;;2.13;1.10;;;9.30;99.90;;;;;;5071279;28;20520;-47
2022/10/28 01:35:57;;;;;;;2.33;1.23;;;9.00;99.90;;;;;;5074880;28;20527;-47
2022/10/28 01:38:32;;;;;;;3.10;1.37;;;9.40;99.90;;;;;;5075140;28;20448;-47
2022/10/28 01:41:07;;;;;;;3.27;1.13;;;9.60;99.90;;;;;;5074958;28;20464;-47
2022/10/28 01:43:41;;;;;;;2.80;1.30;;;9.80;99.90;;;;;;5074933;28;20522;-47
2022/10/28 01:46:14;;;;;;;3.53;1.90;;;9.70;99.90;;;;;;5074760;28;20472;-47
2022/10/28 01:48:47;;;;;;;2.90;1.70;;;9.90;99.90;;;;;;5074937;28;20528;-50
2022/10/28 01:51:21;;;;;;;3.43;1.90;;;9.80;99.90;;;;;;5075129;28;20541;-47
2022/10/28 01:53:51;;;;;;;2.53;1.23;;;9.90;99.90;;;;;;5074376;28;20448;-47
2022/10/28 01:56:24;;;;;;;2.57;1.77;;;10.00;99.90;;;;;;5074865;28;20450;-47
2022/10/28 01:58:53;;;;;;;1.87;1.23;;;10.10;99.90;;;;;;5074822;28;20445;-47
2022/10/28 02:01:23;;;;;;;3.33;1.40;;;10.20;99.90;;;;;;5074472;28;20475;-48
2022/10/28 02:03:52;;;;;;;2.30;1.70;;;10.30;99.90;;;;;;5074606;28;20524;-48
2022/10/28 02:06:21;;;;;;;2.03;1.40;;;10.30;99.90;;;;;;5074390;28;20440;-47
2022/10/28 02:08:57;;;;;;;2.00;1.37;;;10.20;99.90;;;;;;5074137;28;20528;-47
2022/10/28 02:11:36;;;;;;;1.50;0.90;;;10.20;99.90;;;;;;5074401;28;20906;-47
2022/10/28 02:14:14;;;;;;;2.13;1.27;;;10.10;99.90;;;;;;5074225;28;20820;-47
2022/10/28 02:16:49;;;;;;;2.87;1.00;;;10.00;99.90;;;;;;5074140;28;20531;-49
2022/10/28 02:19:25;;;;;;;2.20;1.27;;;10.00;99.90;;;;;;5074396;28;20795;-47
2022/10/28 02:22:06;;;;;;;2.63;1.20;;;10.00;99.90;;;;;;5073822;28;20460;-47
2022/10/28 02:24:42;;;;;;;3.67;1.30;;;9.80;99.90;;;;;;5074040;28;20436;-47
2022/10/28 02:27:18;;;;;;;3.73;1.60;;;9.30;99.90;;;;;;5074039;28;20440;-47
2022/10/28 02:29:50;;;;;;;2.30;1.00;;;9.50;99.90;;;;;;5074002;28;20972;-47
2022/10/28 02:32:22;;;;;;;1.90;1.40;;;9.50;99.90;;;;;;5073724;28;20567;-47
2022/10/28 02:34:53;;;;;;;2.03;1.17;;;9.80;99.90;;;;;;5073722;28;20532;-47
2022/10/28 02:37:24;;;;;;;1.97;1.50;;;10.00;99.90;;;;;;5073803;28;20544;-50
2022/10/28 02:39:54;;;;;;;2.07;1.20;;;9.90;99.90;;;;;;5073851;28;20455;-47
2022/10/28 02:42:24;;;;;;;1.63;1.37;;;9.10;99.90;;;;;;5073952;28;20544;-47
2022/10/28 02:44:56;;;;;;;4.53;1.10;;;9.10;99.90;;;;;;5073068;28;20444;-47
2022/10/28 02:47:28;;;;;;;2.37;0.97;;;9.50;99.90;;;;;;5073273;28;20463;-49
2022/10/28 02:50:00;;;;;;;3.47;1.10;;;9.70;99.90;;;;;;5072905;28;21016;-47
2022/10/28 02:52:29;;;;;;;2.70;1.20;;;9.20;99.90;;;;;;5073228;28;21015;-50
2022/10/28 02:54:58;;;;;;;2.77;1.30;;;9.20;99.90;;;;;;5073262;28;20463;-47
2022/10/28 02:57:28;;;;;;;2.30;1.50;;;8.80;99.90;;;;;;5073319;28;20451;-49
2022/10/28 02:59:57;;;;;;;2.17;1.50;;;9.30;99.90;;;;;;5073581;28;20445;-47
2022/10/28 03:02:26;;;;;;;2.30;1.50;;;9.10;99.90;;;;;;5073205;28;20463;-49
2022/10/28 03:04:53;;;;;;;1.50;1.30;;;9.00;99.90;;;;;;5073305;28;20441;-47
2022/10/28 03:07:20;;;;;;;2.90;1.17;;;8.80;99.90;;;;;;5073309;28;20769;-47
2022/10/28 03:09:47;;;;;;;1.77;1.10;;;9.20;99.90;;;;;;5073297;28;20443;-47
2022/10/28 03:12:14;;;;;;;1.43;1.17;;;9.40;99.90;;;;;;5073021;28;20969;-47
2022/10/28 03:14:41;;;;;;;1.50;1.10;;;9.50;99.90;;;;;;5072902;28;20444;-49
2022/10/28 03:17:08;;;;;;;2.97;1.33;;;9.70;99.90;;;;;;5073343;28;20440;-47
2022/10/28 03:19:36;;;;;;;2.30;1.33;;;9.70;99.90;;;;;;5073177;28;20472;-47
2022/10/28 03:22:03;;;;;;;2.90;1.30;;;9.80;99.90;;;;;;5073038;28;20464;-48
2022/10/28 03:24:30;;;;;;;1.40;1.00;;;9.70;99.90;;;;;;5072776;28;20441;-47
2022/10/28 03:26:57;;;;;;;3.23;2.07;;;9.50;99.90;;;;;;5072789;28;20527;-47
2022/10/28 03:29:23;;;;;;;1.43;1.20;;;9.60;99.90;;;;;;5072835;28;20527;-49
2022/10/28 03:31:50;;;;;;;1.97;0.90;;;9.80;99.90;;;;;;5072904;28;20643;-47
2022/10/28 03:34:17;;;;;;;3.30;1.57;;;9.60;99.90;;;;;;5072628;28;20441;-47
2022/10/28 03:36:45;;;;;;;2.27;1.20;;;9.60;99.90;;;;;;5072629;28;20440;-47
2022/10/28 03:39:12;;;;;;;4.50;2.70;;;9.80;99.90;;;;;;5072596;28;20519;-47
2022/10/28 03:41:39;;;;;;;3.40;1.17;;;9.90;99.90;;;;;;5072524;28;20566;-47
2022/10/28 03:44:06;;;;;;;3.03;0.87;;;9.90;99.90;;;;;;5072180;28;20552;-50
2022/10/28 03:46:33;;;;;;;3.30;1.00;;;10.00;99.90;;;;;;5072433;28;21009;-47
2022/10/28 03:49:00;;;;;;;4.00;1.10;;;10.00;99.90;;;;;;5072565;28;20932;-47
2022/10/28 03:51:27;;;;;;;1.93;1.50;;;10.00;99.90;;;;;;5071152;28;21043;-47
2022/10/28 03:53:55;;;;;;;1.60;1.10;;;10.00;99.90;;;;;;5071706;28;20992;-47
2022/10/28 03:56:22;;;;;;;1.83;0.97;;;10.00;99.90;;;;;;5072024;28;20536;-47
2022/10/28 03:58:49;;;;;;;4.47;1.50;;;9.50;99.90;;;;;;5072457;28;20536;-47
2022/10/28 04:01:16;;;;;;;4.33;2.53;;;9.30;99.90;;;;;;5072114;28;20471;-47
2022/10/28 04:03:43;;;;;;;3.80;3.00;;;9.20;99.90;;;;;;5071900;28;20437;-47
2022/10/28 04:06:10;;;;;;;2.03;1.80;;;9.60;99.90;;;;;;5071936;28;20491;-47
2022/10/28 04:08:37;;;;;;;2.53;1.47;;;9.80;99.90;;;;;;5072202;28;20447;-48
2022/10/28 04:11:05;;;;;;;7.43;2.63;;;9.80;99.90;;;;;;5072064;28;20469;-50
2022/10/28 04:13:32;;;;;;;4.47;1.43;;;9.30;99.90;;;;;;5071470;28;21027;-48
2022/10/28 04:16:00;;;;;;;3.37;3.07;;;9.40;99.90;;;;;;5072093;28;20539;-47
2022/10/28 04:18:27;;;;;;;3.53;2.83;;;9.20;99.90;;;;;;5072000;28;20455;-47
2022/10/28 04:20:54;;;;;;;13.90;12.03;;;9.30;99.90;;;;;;5071854;28;20613;-47
2022/10/28 04:23:21;;;;;;;16.53;13.40;;;9.60;99.90;;;;;;5071424;28;20433;-47
2022/10/28 04:25:52;;;;;;;6.43;4.83;;;9.60;99.90;;;;;;5072220;28;20531;-48
2022/10/28 04:28:21;;;;;;;4.77;3.80;;;9.40;99.90;;;;;;5072008;28;20463;-47
2022/10/28 04:30:47;;;;;;;6.73;4.37;;;9.40;99.90;;;;;;5071638;28;20842;-47
2022/10/28 04:33:14;;;;;;;6.13;3.27;;;9.50;99.90;;;;;;5071228;28;20479;-47
2022/10/28 04:35:42;;;;;;;5.57;4.33;;;9.50;99.90;;;;;;5071506;28;20451;-50
2022/10/28 04:38:09;;;;;;;6.03;5.23;;;9.40;99.90;;;;;;5071997;28;20889;-48
2022/10/28 04:40:36;;;;;;;5.90;4.00;;;9.50;99.90;;;;;;5071662;28;20471;-49
2022/10/28 04:43:02;;;;;;;3.53;2.83;;;9.70;99.90;;;;;;5071452;28;20515;-48
2022/10/28 04:45:31;;;;;;;3.07;2.67;;;9.40;99.90;;;;;;5071611;28;20524;-47
2022/10/28 04:47:58;;;;;;;4.37;2.70;;;8.70;99.90;;;;;;5071446;28;20449;-47
2022/10/28 04:50:25;;;;;;;3.07;2.27;;;8.70;99.90;;;;;;5070328;28;20697;-48
2022/10/28 04:52:52;;;;;;;2.93;2.20;;;8.80;99.90;;;;;;5071505;28;20472;-44
2022/10/28 04:55:19;;;;;;;3.13;2.80;;;9.10;99.90;;;;;;5071469;28;20936;-47
2022/10/28 04:57:53;;;;;;;6.23;2.97;;;9.30;99.90;;;;;;5071539;28;20445;-48
2022/10/28 05:00:21;;;;;;;5.93;4.43;;;9.30;99.90;;;;;;5071877;28;20448;-48
2022/10/28 05:02:49;;;;;;;3.23;2.70;;;8.90;99.90;;;;;;5071292;28;20433;-47
2022/10/28 05:05:17;;;;;;;4.27;2.90;;;8.90;99.90;;;;;;5071326;28;20475;-48
2022/10/28 05:07:43;;;;;;;3.40;2.80;;;8.60;99.90;;;;;;5071179;28;20441;-49
2022/10/28 05:10:14;;;;;;;6.77;2.97;;;9.00;99.90;;;;;;5070599;28;20535;-47
2022/10/28 05:12:41;;;;;;;4.57;3.17;;;9.20;99.90;;;;;;5071307;28;20472;-50
2022/10/28 05:15:10;;;;;;;6.93;3.20;;;9.30;99.90;;;;;;5070970;28;20449;-48
2022/10/28 05:17:38;;;;;;;4.43;2.57;;;9.40;99.90;;;;;;5071415;28;20455;-48
2022/10/28 05:20:08;;;;;;;3.10;1.77;;;9.40;99.90;;;;;;5071215;28;20543;-47
2022/10/28 05:22:35;;;;;;;5.90;2.30;;;9.50;99.90;;;;;;5071145;28;20444;-47
2022/10/28 05:25:02;;;;;;;5.13;1.73;;;9.50;99.90;;;;;;5071037;28;20444;-47
2022/10/28 05:27:29;;;;;;;1.53;1.40;;;9.60;99.90;;;;;;5070842;28;20447;-47
2022/10/28 05:29:56;;;;;;;4.03;2.00;;;9.60;99.90;;;;;;5071239;28;20440;-48
2022/10/28 05:32:22;;;;;;;8.50;3.47;;;9.50;99.90;;;;;;5070864;28;20973;-48
2022/10/28 05:34:49;;;;;;;5.80;3.53;;;9.40;99.90;;;;;;5070709;28;20509;-48
2022/10/28 05:37:17;;;;;;;5.17;2.90;;;9.60;99.90;;;;;;5071216;28;20531;-48
2022/10/28 05:39:44;;;;;;;3.23;2.63;;;9.70;99.90;;;;;;5070972;28;20437;-47
2022/10/28 05:42:11;;;;;;;3.07;2.03;;;9.60;99.90;;;;;;5071293;28;20469;-47
2022/10/28 05:44:38;;;;;;;3.37;1.80;;;9.50;99.90;;;;;;5070649;28;20531;-48
2022/10/28 05:47:05;;;;;;;3.37;1.70;;;9.60;99.90;;;;;;5070810;28;20535;-48
2022/10/28 05:49:31;;;;;;;2.67;1.50;;;9.60;99.90;;;;;;5070608;28;20891;-48
2022/10/28 05:51:58;;;;;;;1.60;1.10;;;9.80;99.90;;;;;;5070090;28;20479;-48
2022/10/28 05:54:27;;;;;;;2.57;1.23;;;9.80;99.90;;;;;;5070693;28;20483;-48
2022/10/28 05:56:53;;;;;;;1.83;1.33;;;9.40;99.90;;;;;;5071052;28;20452;-48
2022/10/28 05:59:20;;;;;;;2.20;1.33;;;9.20;99.90;;;;;;5070791;28;20626;-47
2022/10/28 06:01:47;;;;;;;2.40;1.20;;;9.50;99.90;;;;;;5070683;28;20523;-49
2022/10/28 06:04:14;;;;;;;2.00;0.83;;;9.60;99.90;;;;;;5070326;28;20437;-47
2022/10/28 06:06:41;;;;;;;1.63;1.40;;;9.60;99.90;;;;;;5071099;28;20436;-51
2022/10/28 06:09:08;;;;;;;3.03;1.40;;;9.10;99.90;;;;;;5070885;28;20529;-47
2022/10/28 06:11:36;;;;;;;4.23;1.60;;;8.70;99.90;;;;;;5070648;28;20939;-47
2022/10/28 06:14:03;;;;;;;7.00;5.20;;;8.30;99.90;;;;;;5070376;28;20487;-48
2022/10/28 06:16:30;;;;;;;3.60;3.20;;;8.20;99.90;;;;;;5070438;28;20524;-49
2022/10/28 06:18:57;;;;;;;3.50;2.90;;;8.20;99.90;;;;;;5070478;28;20973;-49
2022/10/28 06:21:24;;;;;;;4.83;3.40;;;8.10;99.90;;;;;;5073924;28;20798;-47
2022/10/28 06:23:51;;;;;;;2.90;2.67;;;8.20;99.90;;;;;;5074144;28;20437;-47
2022/10/28 06:26:18;;;;;;;2.50;1.73;;;8.30;99.90;;;;;;5074174;28;20446;-48
2022/10/28 06:28:48;;;;;;;3.47;2.10;;;8.60;99.90;;;;;;5073890;28;20441;-48
2022/10/28 06:31:15;;;;;;;4.03;2.17;;;8.80;99.90;;;;;;5074187;28;20457;-48
2022/10/28 06:33:42;;;;;;;4.30;3.30;;;9.10;99.90;;;;;;5073600;28;20563;-47
2022/10/28 06:36:09;;;;;;;8.03;5.10;;;9.30;99.90;;;;;;5073749;28;21017;-47
2022/10/28 06:38:36;;;;;;;5.10;3.47;;;9.40;99.90;;;;;;5073756;28;21001;-48
2022/10/28 06:41:03;;;;;;;5.13;2.30;;;9.30;99.90;;;;;;5074028;28;20464;-50
2022/10/28 06:43:30;;;;;;;3.57;2.60;;;9.40;99.90;;;;;;5073561;28;20433;-47
2022/10/28 06:46:01;;;;;;;3.27;2.30;;;9.50;99.90;;;;;;5073522;28;20451;-48
2022/10/28 06:48:28;;;;;;;3.90;2.80;;;9.50;99.90;;;;;;5074184;28;20443;-48
2022/10/28 06:50:56;;;;;;;3.37;2.47;;;9.50;99.90;;;;;;5072251;28;20555;-49
2022/10/28 06:53:23;;;;;;;3.60;2.23;;;9.40;99.90;;;;;;5073300;28;20859;-47
2022/10/28 06:55:54;;;;;;;4.80;3.00;;;9.10;99.90;;;;;;5073390;28;20877;-48
2022/10/28 06:58:21;;;;;;;6.97;3.30;;;9.30;99.90;;;;;;5073432;28;20565;-49
2022/10/28 07:00:47;;;;;;;4.50;2.93;;;9.60;99.90;;;;;;5073593;28;20460;-48
2022/10/28 07:03:17;;;;;;;6.53;3.97;;;9.70;99.90;;;;;;5073257;28;20873;-50
2022/10/28 07:05:45;;;;;;;7.70;4.47;;;9.80;99.90;;;;;;5073589;28;20536;-47
2022/10/28 07:08:13;;;;;;;4.30;3.03;;;9.70;99.90;;;;;;5073473;28;20447;-48
2022/10/28 07:10:40;;;;;;;4.60;3.43;;;9.10;99.90;;;;;;5073225;28;20465;-48
2022/10/28 07:13:06;;;;;;;6.72;3.80;;;9.20;99.90;;;;;;5072106;28;20456;-48
2022/10/28 07:15:33;;;;;;;4.57;3.10;;;9.30;99.90;;;;;;5073147;28;20211;-50
2022/10/28 07:18:01;;;;;;;5.10;3.20;;;9.50;99.90;;;;;;5073737;28;20535;-47
2022/10/28 07:20:31;;;;;;;6.93;2.87;;;9.50;99.90;;;;;;5072933;28;20977;-47
2022/10/28 07:22:59;;;;;;;6.30;2.70;;;9.20;99.90;;;;;;5072786;28;20448;-48
2022/10/28 07:25:26;;;;;;;6.53;4.27;;;9.30;99.90;;;;;;5072753;28;20444;-47
2022/10/28 07:27:53;;;;;;;5.67;3.20;;;9.50;99.90;;;;;;5073128;28;20544;-47
2022/10/28 07:30:20;;;;;;;10.23;7.93;;;9.80;99.90;;;;;;5072790;28;21017;-50
2022/10/28 07:32:47;;;;;;;16.90;11.67;;;9.40;99.90;;;;;;5072253;28;20861;-47
2022/10/28 07:35:14;;;;;;;16.17;12.43;;;9.40;99.90;;;;;;5072552;28;20564;-48
2022/10/28 07:37:42;;;;;;;16.73;9.90;;;9.70;99.90;;;;;;5072503;28;20532;-48
2022/10/28 07:40:10;;;;;;;11.13;8.50;;;9.90;99.90;;;;;;5072485;28;20804;-47
2022/10/28 07:42:37;;;;;;;11.70;9.23;;;10.00;99.90;;;;;;5072590;28;20480;-48
2022/10/28 07:45:04;;;;;;;25.03;11.20;;;9.90;99.90;;;;;;5072301;28;21032;-47
2022/10/28 07:47:32;;;;;;;7.10;5.87;;;10.00;99.90;;;;;;5072554;28;20506;-47
2022/10/28 07:49:59;;;;;;;6.97;5.00;;;10.10;99.90;;;;;;5071540;28;20443;-50
2022/10/28 07:52:26;;;;;;;11.03;5.30;;;10.20;99.90;;;;;;5073170;28;21055;-47
2022/10/28 07:54:54;;;;;;;4.70;3.57;;;10.30;99.90;;;;;;5072263;28;20575;-47
2022/10/28 07:57:21;;;;;;;3.70;2.40;;;10.40;99.90;;;;;;5072046;28;20880;-48
2022/10/28 07:59:48;;;;;;;9.50;4.50;;;10.40;99.90;;;;;;5072346;28;20487;-49
2022/10/28 08:02:17;;;;;;;12.07;7.10;;;10.40;99.90;;;;;;5072289;28;20488;-49
2022/10/28 08:04:44;;;;;;;19.37;9.90;;;10.40;99.90;;;;;;5072193;28;20441;-47
2022/10/28 08:07:11;;;;;;;18.60;10.83;;;10.40;99.90;;;;;;5072185;28;20480;-48
2022/10/28 08:09:38;;;;;;;15.10;11.60;;;10.40;99.90;;;;;;5071890;28;20445;-46
2022/10/28 08:12:08;;;;;;;17.80;11.37;;;10.40;99.90;;;;;;5072021;28;20465;-47
2022/10/28 08:14:35;;;;;;;22.70;13.97;;;10.40;99.90;;;;;;5071944;28;20472;-47
2022/10/28 08:17:02;;;;;;;27.77;13.63;;;10.50;99.90;;;;;;5071496;28;20532;-47
2022/10/28 08:19:29;;;;;;;19.93;11.13;;;10.50;99.90;;;;;;5072466;28;20447;-47
2022/10/28 08:21:55;;;;;;;11.93;7.27;;;10.60;99.90;;;;;;5071630;28;20497;-48
2022/10/28 08:24:22;;;;;;;12.20;7.93;;;10.70;99.90;;;;;;5071577;28;20441;-47
2022/10/28 08:26:49;;;;;;;9.20;5.73;;;10.70;99.90;;;;;;5071835;28;20527;-48
2022/10/28 08:29:18;;;;;;;7.30;3.53;;;10.70;99.90;;;;;;5071602;28;20527;-48
2022/10/28 08:31:44;;;;;;;4.73;2.60;;;10.60;99.90;;;;;;5071274;28;20898;-47
2022/10/28 08:34:11;;;;;;;9.30;4.03;;;10.70;99.90;;;;;;5071407;28;20487;-47
2022/10/28 08:36:38;;;;;;;6.13;3.90;;;10.80;99.90;;;;;;5071859;28;20447;-46
2022/10/28 08:39:05;;;;;;;4.43;3.70;;;10.80;99.90;;;;;;5071662;28;20823;-47
2022/10/28 08:41:38;;;;;;;5.33;3.87;;;10.80;99.90;;;;;;5071852;28;20460;-47
2022/10/28 08:44:59;;;;;;;4.07;2.80;;;10.70;99.90;;;;;;5070507;28;20441;-48
2022/10/28 08:47:38;;;;;;;4.33;2.30;;;10.40;99.90;;;;;;4995044;28;20534;-48
2022/10/28 08:50:12;;;;;;;3.00;2.03;;;10.60;99.90;;;;;;5008375;28;20447;-47
2022/10/28 08:52:45;;;;;;;2.87;1.90;;;10.70;99.90;;;;;;5044973;28;20437;-50
2022/10/28 08:55:16;;;;;;;2.90;1.90;;;10.90;99.90;;;;;;5071205;28;20477;-47
2022/10/28 08:57:46;;;;;;;3.50;1.97;;;11.00;99.90;;;;;;5071531;28;20437;-47
2022/10/28 09:00:20;;;;;;;7.30;3.53;;;11.00;99.90;;;;;;5071193;28;20528;-48
2022/10/28 09:03:08;;;;;;;6.83;4.03;;;11.00;99.90;;;;;;5071296;28;20527;-47
2022/10/28 09:05:35;;;;;;;6.67;3.07;;;11.10;99.90;;;;;;5072301;28;20563;-50
2022/10/28 09:08:02;;;;;;;3.90;2.30;;;11.10;99.90;;;;;;5071898;28;20532;-49
2022/10/28 09:10:46;;;;;;;4.40;2.90;;;11.10;99.90;;;;;;5071909;28;20464;-47
2022/10/28 09:13:23;;;;;;;6.43;3.07;;;11.20;99.90;;;;;;5071842;28;20810;-49
2022/10/28 09:15:57;;;;;;;7.37;4.90;;;11.30;99.90;;;;;;5071653;28;20436;-49
2022/10/28 09:18:39;;;;;;;8.50;6.20;;;11.50;99.90;;;;;;5071693;28;20439;-51
2022/10/28 09:21:12;;;;;;;8.67;6.80;;;11.70;99.90;;;;;;5071564;28;20461;-50
2022/10/28 09:23:48;;;;;;;8.97;4.67;;;11.70;99.90;;;;;;5071474;28;20472;-50
2022/10/28 09:26:24;;;;;;;4.60;3.63;;;11.80;99.90;;;;;;5071751;28;20938;-48
2022/10/28 09:29:01;;;;;;;4.63;3.20;;;11.90;99.90;;;;;;5071818;28;20518;-47
2022/10/28 09:31:34;;;;;;;8.90;4.57;;;12.10;99.90;;;;;;5071251;28;20466;-48
2022/10/28 09:34:18;;;;;;;4.50;2.83;;;12.20;99.90;;;;;;5071451;28;20513;-49
2022/10/28 09:36:51;;;;;;;4.80;2.27;;;12.30;99.90;;;;;;5072184;28;20959;-49
2022/10/28 09:39:22;;;;;;;5.77;2.80;;;12.40;99.90;;;;;;5071411;28;20533;-50
2022/10/28 09:41:50;;;;;;;3.67;2.90;;;12.50;99.90;;;;;;5071183;28;20458;-49
2022/10/28 09:44:21;;;;;;;7.20;4.30;;;12.60;99.90;;;;;;5071113;28;20434;-48
2022/10/28 09:46:51;;;;;;;14.33;2.90;;;12.60;99.90;;;;;;5070895;28;20940;-49
2022/10/28 09:49:24;;;;;;;6.67;3.17;;;12.70;99.90;;;;;;5070956;28;20447;-48
2022/10/28 09:51:54;;;;;;;7.60;3.00;;;12.70;99.90;;;;;;5070484;28;20539;-52
2022/10/28 09:54:30;;;;;;;5.97;2.90;;;12.90;99.90;;;;;;5070546;28;20562;-48
2022/10/28 09:56:57;;;;;;;5.20;3.47;;;13.00;99.90;;;;;;5074806;28;20441;-48
2022/10/28 09:59:24;;;;;;;8.00;3.70;;;13.00;99.90;;;;;;5074772;28;20449;-49
2022/10/28 10:01:51;;;;;;;4.03;2.77;;;13.00;99.90;;;;;;5074518;28;20544;-53
2022/10/28 10:04:22;;;;;;;6.00;3.40;;;13.10;99.90;;;;;;5074132;28;20869;-48
2022/10/28 10:06:52;;;;;;;6.00;3.53;;;13.20;99.90;;;;;;5074452;28;20896;-49
2022/10/28 10:09:23;;;;;;;3.77;2.70;;;13.10;99.90;;;;;;5074035;28;20448;-48
2022/10/28 10:11:53;;;;;;;3.10;2.27;;;13.20;99.90;;;;;;5074175;28;20565;-51
2022/10/28 10:14:25;;;;;;;3.00;2.40;;;13.20;99.90;;;;;;5073996;28;20956;-48
2022/10/28 10:16:55;;;;;;;3.37;2.30;;;13.30;99.90;;;;;;5074304;28;20531;-48
2022/10/28 10:19:23;;;;;;;5.43;2.60;;;13.40;99.90;;;;;;5074171;28;20447;-48
2022/10/28 10:21:51;;;;;;;2.63;1.73;;;13.50;99.90;;;;;;5074386;28;20467;-49
2022/10/28 10:24:28;;;;;;;2.97;2.10;;;13.60;99.90;;;;;;5073535;28;20529;-49
2022/10/28 10:26:56;;;;;;;3.53;2.17;;;13.60;99.90;;;;;;5074452;28;20448;-51
2022/10/28 10:29:24;;;;;;;3.67;1.70;;;13.70;99.90;;;;;;5074016;28;20531;-51
2022/10/28 10:32:08;;;;;;;2.93;1.87;;;13.80;99.90;;;;;;5073941;28;21039;-49
2022/10/28 10:34:37;;;;;;;2.20;1.40;;;13.80;99.90;;;;;;5073571;28;21095;-49
2022/10/28 10:37:04;;;;;;;5.47;1.90;;;13.90;99.90;;;;;;5073031;28;20446;-49
2022/10/28 10:39:36;;;;;;;4.37;1.80;;;14.00;99.90;;;;;;5069446;28;20465;-50
2022/10/28 10:42:03;;;;;;;3.73;1.83;;;13.90;99.90;;;;;;5072161;28;20511;-50
2022/10/28 10:44:35;;;;;;;4.13;1.50;;;14.00;99.90;;;;;;5072208;28;20439;-50
2022/10/28 10:47:18;;;;;;;4.50;1.90;;;14.20;99.90;;;;;;5072722;28;20468;-49
2022/10/28 10:49:46;;;;;;;4.40;1.73;;;14.20;99.90;;;;;;5072262;28;20475;-51
2022/10/28 10:52:20;;;;;;;3.57;1.43;;;14.20;99.90;;;;;;5073069;28;20558;-49
2022/10/28 10:54:57;;;;;;;4.03;2.23;;;14.20;99.90;;;;;;5073337;28;20490;-49
2022/10/28 10:57:25;;;;;;;3.43;1.50;;;14.30;99.90;;;;;;5073804;28;20439;-49
2022/10/28 10:59:55;;;;;;;2.70;1.40;;;14.40;99.90;;;;;;5073014;28;20527;-49
2022/10/28 11:02:25;;;;;;;3.70;1.90;;;14.50;99.90;;;;;;5071631;28;20461;-50
2022/10/28 11:04:57;;;;;;;3.80;1.73;;;14.50;99.90;;;;;;5071562;28;20524;-50
2022/10/28 11:07:24;;;;;;;2.67;1.77;;;14.50;99.90;;;;;;5070986;28;20544;-52
2022/10/28 11:09:51;;;;;;;2.27;1.83;;;14.70;99.90;;;;;;5072278;28;20828;-48
2022/10/28 11:12:27;;;;;;;4.40;2.17;;;14.70;99.90;;;;;;5072637;28;20461;-51
2022/10/28 11:14:56;;;;;;;2.70;2.23;;;14.90;99.90;;;;;;5073109;28;20514;-49
2022/10/28 11:17:26;;;;;;;5.77;2.40;;;14.90;99.90;;;;;;5073624;28;20530;-47
2022/10/28 11:19:57;;;;;;;5.70;2.57;;;14.90;99.90;;;;;;5073463;28;20539;-49
2022/10/28 11:22:42;;;;;;;3.33;2.13;;;15.00;99.90;;;;;;5072969;28;20992;-48
2022/10/28 11:25:28;;;;;;;3.67;2.30;;;15.20;99.90;;;;;;5072170;28;20498;-48
2022/10/28 11:28:03;;;;;;;3.50;2.07;;;15.20;99.90;;;;;;5073774;28;21102;-49
2022/10/28 11:30:40;;;;;;;4.97;2.80;;;15.20;99.90;;;;;;5073302;28;20463;-48
2022/10/28 11:33:13;;;;;;;3.00;2.30;;;15.30;99.90;;;;;;5072651;28;20436;-48
2022/10/28 11:35:50;;;;;;;5.77;2.70;;;15.40;99.90;;;;;;5073010;28;20989;-50
2022/10/28 11:38:35;;;;;;;3.77;2.60;;;15.30;99.90;;;;;;5073243;28;20959;-49
2022/10/28 11:41:15;;;;;;;3.57;2.40;;;15.40;99.90;;;;;;5073630;28;20556;-48
2022/10/28 11:43:50;;;;;;;3.53;2.43;;;15.40;99.90;;;;;;5073781;28;20462;-50
2022/10/28 11:46:29;;;;;;;4.03;1.90;;;15.40;99.90;;;;;;5072630;28;20440;-48
2022/10/28 11:49:44;;;;;;;3.40;2.07;;;15.50;99.90;;;;;;5072830;28;20526;-51
2022/10/28 11:52:22;;;;;;;3.30;1.93;;;15.50;99.90;;;;;;5033392;28;20483;-49
2022/10/28 11:55:00;;;;;;;5.10;2.57;;;15.50;99.90;;;;;;5072243;28;20482;-49
2022/10/28 11:57:41;;;;;;;3.00;1.90;;;15.60;99.90;;;;;;5072247;28;20445;-49
2022/10/28 12:00:27;;;;;;;4.93;2.47;;;15.60;99.90;;;;;;5072316;28;20818;-48
2022/10/28 12:03:12;;;;;;;6.20;2.10;;;15.90;99.90;;;;;;5072080;28;20527;-48
2022/10/28 12:05:42;;;;;;;5.10;2.10;;;15.90;99.90;;;;;;5072304;28;20444;-48
2022/10/28 12:08:30;;;;;;;4.70;2.00;;;15.90;99.90;;;;;;5071781;28;20540;-51
2022/10/28 12:11:10;;;;;;;5.80;2.30;;;15.90;99.90;;;;;;5072163;28;20544;-49
2022/10/28 12:13:45;;;;;;;3.40;2.03;;;16.00;99.90;;;;;;5072011;28;20447;-49
2022/10/28 12:16:22;;;;;;;5.63;2.37;;;16.00;99.90;;;;;;5072023;28;20482;-48
2022/10/28 12:18:55;;;;;;;3.50;2.57;;;16.00;99.90;;;;;;5071660;28;20436;-49
2022/10/28 12:21:28;;;;;;;3.70;2.27;;;15.90;99.90;;;;;;5071560;28;20465;-49
2022/10/28 12:23:58;;;;;;;4.50;2.63;;;15.90;99.90;;;;;;5071925;28;20449;-50
2022/10/28 12:26:33;;;;;;;3.00;2.20;;;15.80;99.90;;;;;;5071871;28;20532;-49
2022/10/28 12:29:04;;;;;;;2.63;1.50;;;15.90;99.90;;;;;;5072020;28;20535;-49
2022/10/28 12:31:39;;;;;;;3.40;2.20;;;16.10;99.90;;;;;;5072348;28;20551;-51
2022/10/28 12:34:11;;;;;;;4.23;2.07;;;16.30;99.90;;;;;;5071367;28;20436;-49
2022/10/28 12:36:44;;;;;;;3.33;1.80;;;16.40;99.90;;;;;;5071495;28;20495;-48
2022/10/28 12:39:18;;;;;;;4.00;1.97;;;16.50;99.90;;;;;;5071588;28;20451;-51
2022/10/28 12:41:56;;;;;;;4.83;2.30;;;16.60;99.90;;;;;;5071534;28;20552;-51
2022/10/28 12:44:25;;;;;;;3.73;2.00;;;16.40;99.90;;;;;;5071391;28;20531;-50
2022/10/28 12:47:05;;;;;;;7.33;2.07;;;16.40;99.90;;;;;;5071892;28;20440;-48
2022/10/28 12:49:44;;;;;;;9.17;3.57;;;16.20;99.90;;;;;;5071194;28;20523;-49
2022/10/28 12:52:22;;;;;;;3.33;1.83;;;16.20;99.90;;;;;;5071313;28;20476;-49
2022/10/28 12:54:57;;;;;;;3.90;2.60;;;16.20;99.90;;;;;;5071268;28;20543;-50
2022/10/28 12:57:26;;;;;;;8.73;3.10;;;16.20;99.90;;;;;;5071303;28;20883;-48
2022/10/28 12:59:59;;;;;;;3.90;3.10;;;16.30;99.90;;;;;;5071386;28;20540;-49
2022/10/28 13:02:30;;;;;;;3.30;2.20;;;16.30;99.90;;;;;;5071449;28;20970;-49
2022/10/28 13:04:58;;;;;;;3.87;2.30;;;16.30;99.90;;;;;;5071486;28;20433;-49
2022/10/28 13:08:00;;;;;;;3.00;2.53;;;16.30;99.90;;;;;;5071299;28;20981;-49
2022/10/28 13:10:35;;;;;;;3.83;2.53;;;16.60;99.90;;;;;;5071127;28;20515;-50